Victory, Wisconsin
Current Conditions -  °F | °C
As of 2:34 PM on Saturday 20 Dec 2014 (Local Time) from KY51 Reporting Station
Overcast Overcast  
Wind Chill: 22°   Ceiling: 700
Heat Index: 29°   Visibility: 2.5mi
Dew Point: 29°   Wind: 8mph
Humidity: 100%   Direction: 150°SSE
Pressure: 30.16"   Gusts: NA
Location:  43.4497°N, 91.1446°W
Report Text: KY51 202034Z AUTO 15007KT 2 1/2SM OVC007 M01/M01 A3016 RMK AO1 T10151015
Loading
Personal Weather Stations






























Interactive Weather Map New forecast layout! Learn more

10-Day Weather Forecast

Advertisements
Track Severe Weather on mobile